首页
METAR-TAF:

METAR-TAF

机场 :

Boonville, 密蘇里州, 美国

纬度: 38-56-48N, 经度: 092-40-58W, 海拔: 218米

当前天气观测

该预报发布于34分钟前的12:35 UTC
风速7节,风向西北
温度 18°C
湿度 77%
气压 1013 hPa
能見度: 16.1公里
天空无云

METAR: KVER 211235Z AUTO 31007KT 10SM CLR 18/14 A2991 RMK AO2 T01820144

时间: 08:09 (13:09 UTC)


TAF: 丢失

超过4000个机场的气象观测和天气预报(METAR&TAF报告)。

可查询的气象台以黄色和红色小点在地图上表示。

将鼠标移到小点上方,可查看气象台名称。

然后点击查看天气观测和预报。

如需切换地图:点击带黑十字的绿色按钮放大地图;点击带横线的绿色按钮缩小地图;或者点击绿色箭头查看邻近地区的地图。


METAR-TAF: